Time;durP1;ratioP1;P1;durP2;ratioP2;P2;SDS_P1;SDS_P2;PMS_P1;PMS_P2;Temp;Humidity;BMP_temperature;BMP_pressure;BME280_temperature;BME280_humidity;BME280_pressure;Samples;Min_cycle;Max_cycle;Signal;HPM_P1;HPM_P2
2022/07/03 00:01:58;;;;;;;15.43;10.13;;;17.40;99.90;;;;;;6072377;23;20052;-94
2022/07/03 00:04:24;;;;;;;10.75;4.63;;;17.40;99.90;;;;;;6072528;23;20043;-94
2022/07/03 00:06:52;;;;;;;10.48;3.35;;;17.30;99.90;;;;;;6072152;23;20557;-95
2022/07/03 00:09:19;;;;;;;5.68;2.58;;;17.30;99.90;;;;;;6073196;23;20022;-96
2022/07/03 00:11:45;;;;;;;7.28;2.70;;;17.30;99.90;;;;;;6072214;23;20117;-96
2022/07/03 00:14:11;;;;;;;5.18;2.35;;;17.20;99.90;;;;;;6072825;23;20018;-96
2022/07/03 00:16:37;;;;;;;5.45;1.90;;;17.30;99.90;;;;;;6072995;23;20022;-96
2022/07/03 00:19:02;;;;;;;7.47;1.98;;;17.20;99.90;;;;;;6072543;23;20024;-95
2022/07/03 00:21:34;;;;;;;6.32;1.75;;;17.20;99.90;;;;;;6072389;23;20022;-96
2022/07/03 00:24:07;;;;;;;5.05;2.10;;;17.10;99.90;;;;;;6071802;23;20343;-95
2022/07/03 00:26:37;;;;;;;3.85;1.70;;;17.00;99.90;;;;;;6072832;23;20045;-96
2022/07/03 00:29:03;;;;;;;5.28;2.30;;;16.90;99.90;;;;;;6075712;23;20048;-96
2022/07/03 00:31:32;;;;;;;6.50;1.92;;;16.90;99.90;;;;;;6072099;23;20029;-96
2022/07/03 00:34:00;;;;;;;7.93;2.15;;;16.80;99.90;;;;;;6072611;23;20018;-96
2022/07/03 00:36:41;;;;;;;8.30;1.92;;;16.80;99.90;;;;;;6072247;23;20105;-96
2022/07/03 00:39:06;;;;;;;5.07;2.13;;;16.70;99.90;;;;;;6071395;23;20018;-96
2022/07/03 00:41:34;;;;;;;4.82;1.92;;;16.60;99.90;;;;;;6072140;23;20320;-96
2022/07/03 00:44:01;;;;;;;7.03;2.40;;;16.60;99.90;;;;;;6072820;23;20041;-96
2022/07/03 00:46:28;;;;;;;4.03;2.30;;;16.50;99.90;;;;;;6072659;23;20064;-96
2022/07/03 00:48:55;;;;;;;7.20;2.50;;;16.50;99.90;;;;;;6072304;23;20080;-96
2022/07/03 00:51:25;;;;;;;6.90;2.30;;;16.40;99.90;;;;;;6072582;23;20018;-96
2022/07/03 00:53:53;;;;;;;9.18;2.35;;;16.30;99.90;;;;;;6072211;23;20084;-96
2022/07/03 00:56:24;;;;;;;4.90;2.30;;;16.30;99.90;;;;;;6072574;23;20451;-96
2022/07/03 00:58:54;;;;;;;6.85;2.30;;;16.20;99.90;;;;;;6072324;23;20018;-96
2022/07/03 01:01:19;;;;;;;8.40;2.70;;;16.20;99.90;;;;;;6071831;23;20545;-96
2022/07/03 01:03:45;;;;;;;4.07;2.28;;;16.10;99.90;;;;;;6072321;23;20014;-96
2022/07/03 01:06:14;;;;;;;6.50;2.58;;;16.10;99.90;;;;;;6070808;23;20022;-96
2022/07/03 01:08:45;;;;;;;4.93;2.42;;;16.10;99.90;;;;;;6071382;23;20029;-96
2022/07/03 01:11:38;;;;;;;5.20;2.40;;;16.00;99.90;;;;;;6072614;23;20101;-96
2022/07/03 01:14:21;;;;;;;7.30;3.00;;;16.00;99.90;;;;;;6072076;23;20018;-96
2022/07/03 01:17:02;;;;;;;5.75;2.95;;;15.90;99.90;;;;;;6072498;23;20093;-96
2022/07/03 01:19:41;;;;;;;5.88;2.55;;;15.80;99.90;;;;;;6071846;23;20014;-96
2022/07/03 01:22:17;;;;;;;6.80;2.58;;;15.80;99.90;;;;;;6070720;23;20396;-96
2022/07/03 01:24:49;;;;;;;6.63;3.08;;;15.80;99.90;;;;;;6071865;23;20068;-96
2022/07/03 01:27:21;;;;;;;6.15;3.05;;;15.70;99.90;;;;;;6072196;23;20075;-96
2022/07/03 01:30:07;;;;;;;6.47;3.00;;;15.70;99.90;;;;;;6072130;23;20021;-96
2022/07/03 01:32:40;;;;;;;8.15;2.50;;;15.60;99.90;;;;;;6072319;23;20026;-96
2022/07/03 01:35:08;;;;;;;6.38;3.55;;;15.60;99.90;;;;;;6072058;23;20024;-96
2022/07/03 01:37:37;;;;;;;5.30;3.13;;;15.60;99.90;;;;;;6071724;23;20713;-96
2022/07/03 01:40:04;;;;;;;6.65;3.58;;;15.50;99.90;;;;;;6072017;23;20075;-96
2022/07/03 01:42:34;;;;;;;9.85;3.53;;;15.50;99.90;;;;;;6072558;23;20028;-96
2022/07/03 01:45:00;;;;;;;10.88;3.65;;;15.50;99.90;;;;;;6072205;23;20049;-96
2022/07/03 01:47:28;;;;;;;7.28;4.32;;;15.50;99.90;;;;;;6071929;23;20022;-96
2022/07/03 01:49:54;;;;;;;10.70;3.90;;;15.50;99.90;;;;;;6071913;23;20018;-96
2022/07/03 01:52:21;;;;;;;8.45;3.88;;;15.40;99.90;;;;;;6071789;23;20465;-95
2022/07/03 01:54:48;;;;;;;6.38;3.70;;;15.50;99.90;;;;;;6072191;23;20466;-96
2022/07/03 01:57:14;;;;;;;8.63;3.88;;;15.40;99.90;;;;;;6071886;23;20450;-96
2022/07/03 01:59:40;;;;;;;7.30;3.90;;;15.40;99.90;;;;;;6072698;23;20048;-96
2022/07/03 02:02:16;;;;;;;7.47;4.03;;;15.30;99.90;;;;;;6072996;23;20303;-95
2022/07/03 02:05:00;;;;;;;6.50;3.63;;;15.30;99.90;;;;;;6072457;23;20014;-95
2022/07/03 02:07:45;;;;;;;7.90;4.30;;;15.30;99.90;;;;;;6071991;23;20462;-96
2022/07/03 02:10:16;;;;;;;13.50;6.80;;;15.20;99.90;;;;;;6072753;23;20018;-96
2022/07/03 02:12:57;;;;;;;13.45;8.20;;;15.20;99.90;;;;;;6075344;23;20465;-96
2022/07/03 02:15:30;;;;;;;19.52;11.50;;;15.10;99.90;;;;;;6071031;23;20072;-96
2022/07/03 02:18:00;;;;;;;14.40;9.73;;;15.10;99.90;;;;;;6071938;23;20328;-96
2022/07/03 02:20:27;;;;;;;10.85;6.32;;;15.00;99.90;;;;;;6071896;23;20018;-96
2022/07/03 02:23:00;;;;;;;5.35;3.60;;;15.00;99.90;;;;;;6072372;23;20068;-96
2022/07/03 02:25:31;;;;;;;4.90;3.65;;;14.90;99.90;;;;;;6072395;23;20010;-96
2022/07/03 02:28:11;;;;;;;6.25;4.18;;;14.90;99.90;;;;;;6073104;23;20060;-96
2022/07/03 02:30:43;;;;;;;5.43;3.20;;;14.80;99.90;;;;;;6072567;23;20339;-96
2022/07/03 02:33:11;;;;;;;6.60;4.15;;;14.80;99.90;;;;;;6071749;23;20184;-95
2022/07/03 02:35:37;;;;;;;4.43;3.30;;;14.70;99.90;;;;;;6071796;23;20103;-96
2022/07/03 02:38:22;;;;;;;6.88;3.47;;;14.70;99.90;;;;;;6071554;23;20018;-96
2022/07/03 02:40:50;;;;;;;4.25;2.47;;;14.70;99.90;;;;;;6071727;23;20097;-96
2022/07/03 02:43:28;;;;;;;3.30;2.28;;;14.60;99.90;;;;;;6072412;23;20022;-96
2022/07/03 02:46:48;;;;;;;4.35;1.98;;;14.60;99.90;;;;;;6071568;23;20045;-96
2022/07/03 02:48:54;;;;;;;7.22;2.00;;;14.50;99.90;;;;;;6095574;23;20136;-95
2022/07/03 02:51:26;;;;;;;3.33;2.10;;;14.40;99.90;;;;;;6071986;23;20017;-95
2022/07/03 02:54:01;;;;;;;6.38;3.60;;;14.30;99.90;;;;;;6071658;23;20053;-96
2022/07/03 02:56:42;;;;;;;5.55;3.90;;;14.20;99.90;;;;;;6071453;23;20050;-96
2022/07/03 02:59:29;;;;;;;6.45;4.40;;;14.10;99.90;;;;;;6071709;23;20029;-95
2022/07/03 03:02:06;;;;;;;6.03;4.20;;;14.10;99.90;;;;;;6071337;23;20045;-95
2022/07/03 03:04:34;;;;;;;8.85;5.22;;;14.10;99.90;;;;;;6070477;23;20037;-95
2022/07/03 03:07:08;;;;;;;7.82;4.63;;;14.10;99.90;;;;;;6071230;23;20018;-96
2022/07/03 03:09:42;;;;;;;9.35;4.78;;;14.10;99.90;;;;;;6072286;23;20014;-96
2022/07/03 03:12:09;;;;;;;10.02;4.90;;;14.10;99.90;;;;;;6073063;23;20022;-95
2022/07/03 03:14:42;;;;;;;7.50;4.80;;;14.10;99.90;;;;;;6072706;23;20502;-95
2022/07/03 03:17:13;;;;;;;13.20;4.82;;;14.10;99.90;;;;;;6072670;23;20022;-96
2022/07/03 03:19:42;;;;;;;7.18;4.65;;;14.10;99.90;;;;;;6073146;23;20020;-96
2022/07/03 03:22:24;;;;;;;7.07;3.90;;;14.10;99.90;;;;;;6071375;23;20587;-95
2022/07/03 03:24:50;;;;;;;9.30;4.63;;;14.10;99.90;;;;;;6072515;23;20013;-96
2022/07/03 03:27:17;;;;;;;9.80;4.38;;;14.10;99.90;;;;;;6072579;23;20264;-95
2022/07/03 03:29:43;;;;;;;5.53;4.18;;;14.10;99.90;;;;;;6072821;23;20018;-95
2022/07/03 03:32:10;;;;;;;11.98;3.80;;;14.10;99.90;;;;;;6078119;23;20044;-96
2022/07/03 03:34:37;;;;;;;5.90;4.00;;;14.10;99.90;;;;;;6072716;23;20018;-95
2022/07/03 03:37:03;;;;;;;7.43;4.32;;;14.10;99.90;;;;;;6072350;23;20085;-96
2022/07/03 03:39:30;;;;;;;7.25;4.20;;;14.20;99.90;;;;;;6072977;23;20041;-96
2022/07/03 03:41:56;;;;;;;7.45;4.30;;;14.20;99.90;;;;;;6072576;23;20023;-96
2022/07/03 03:44:21;;;;;;;11.88;3.92;;;14.20;99.90;;;;;;6072905;23;20026;-96
2022/07/03 03:46:47;;;;;;;6.10;4.07;;;14.30;99.90;;;;;;6071987;23;20081;-96
2022/07/03 03:49:13;;;;;;;9.07;3.92;;;14.30;99.90;;;;;;6075612;23;20018;-96
2022/07/03 03:51:39;;;;;;;6.35;3.95;;;14.30;99.90;;;;;;6073128;23;20109;-96
2022/07/03 03:54:05;;;;;;;9.48;3.97;;;14.40;99.90;;;;;;6072594;23;20065;-96
2022/07/03 03:56:31;;;;;;;6.68;4.05;;;14.40;99.90;;;;;;6074273;23;20022;-95
2022/07/03 03:58:56;;;;;;;5.65;3.65;;;14.40;99.90;;;;;;6074440;23;20022;-96
2022/07/03 04:01:22;;;;;;;5.50;3.50;;;14.50;99.90;;;;;;6072131;23;20481;-96
2022/07/03 04:03:48;;;;;;;5.90;3.53;;;14.50;99.90;;;;;;6073667;23;20021;-96
2022/07/03 04:06:14;;;;;;;9.00;3.90;;;14.40;99.90;;;;;;6070243;23;20024;-96
2022/07/03 04:08:39;;;;;;;16.77;4.95;;;14.40;99.90;;;;;;6072213;23;20053;-95
2022/07/03 04:11:05;;;;;;;12.63;4.43;;;14.40;99.90;;;;;;6072514;23;20018;-96
2022/07/03 04:13:31;;;;;;;5.20;3.72;;;14.40;99.90;;;;;;6074654;23;20049;-96
2022/07/03 04:15:57;;;;;;;5.93;3.95;;;14.40;99.90;;;;;;6076072;23;20028;-96
2022/07/03 04:18:23;;;;;;;7.15;3.63;;;14.40;99.90;;;;;;6074236;23;20017;-95
2022/07/03 04:20:49;;;;;;;8.02;4.20;;;14.50;99.90;;;;;;6072402;23;20044;-95
2022/07/03 04:23:15;;;;;;;5.82;3.95;;;14.50;99.90;;;;;;6072858;23;20097;-96
2022/07/03 04:25:40;;;;;;;7.95;4.03;;;14.50;99.90;;;;;;6074294;23;20053;-96
2022/07/03 04:28:06;;;;;;;6.20;3.70;;;14.40;99.90;;;;;;6075367;23;20018;-95
2022/07/03 04:30:32;;;;;;;6.30;4.00;;;14.40;99.90;;;;;;6073960;23;20085;-96
2022/07/03 04:32:58;;;;;;;8.05;4.47;;;14.40;99.90;;;;;;6074456;23;20021;-96
2022/07/03 04:35:23;;;;;;;7.65;3.90;;;14.40;99.90;;;;;;6073506;23;20013;-96
2022/07/03 04:37:49;;;;;;;7.40;4.03;;;14.40;99.90;;;;;;6072480;23;20347;-95
2022/07/03 04:40:15;;;;;;;8.60;4.85;;;14.40;99.90;;;;;;6074313;23;20098;-96
2022/07/03 04:42:41;;;;;;;8.00;4.57;;;14.50;99.90;;;;;;6072119;23;20025;-95
2022/07/03 04:45:07;;;;;;;9.02;4.88;;;14.60;99.90;;;;;;6072126;23;20049;-94
2022/07/03 04:47:33;;;;;;;6.63;4.10;;;14.70;99.90;;;;;;6074350;23;20021;-96
2022/07/03 04:49:58;;;;;;;10.40;4.75;;;14.80;99.90;;;;;;6072339;23;20026;-96
2022/07/03 04:52:24;;;;;;;8.30;4.78;;;14.90;99.90;;;;;;6071420;23;20022;-96
2022/07/03 04:54:50;;;;;;;7.90;4.65;;;15.00;99.90;;;;;;6070658;23;20442;-96
2022/07/03 04:57:16;;;;;;;7.15;5.07;;;15.00;99.90;;;;;;6071998;23;20033;-95
2022/07/03 04:59:42;;;;;;;7.10;4.40;;;15.10;99.90;;;;;;6072414;23;20068;-96
2022/07/03 05:02:07;;;;;;;5.82;4.82;;;15.10;99.90;;;;;;6073894;23;20002;-95
2022/07/03 05:04:33;;;;;;;8.98;5.38;;;15.20;99.90;;;;;;6072510;23;20050;-95
2022/07/03 05:06:59;;;;;;;7.68;4.88;;;15.30;99.90;;;;;;6071953;23;20018;-95
2022/07/03 05:09:25;;;;;;;8.30;4.95;;;15.40;99.90;;;;;;6072640;23;20018;-95
2022/07/03 05:11:51;;;;;;;11.00;5.78;;;15.50;99.90;;;;;;6074997;23;20028;-96
2022/07/03 05:14:17;;;;;;;9.68;4.88;;;15.70;99.90;;;;;;6072152;23;20347;-95
2022/07/03 05:16:42;;;;;;;7.68;4.80;;;15.80;99.90;;;;;;6074265;23;20033;-92
2022/07/03 05:19:08;;;;;;;7.70;4.80;;;15.90;99.90;;;;;;6073852;23;20018;-94
2022/07/03 05:21:34;;;;;;;10.50;5.65;;;16.10;99.90;;;;;;6072398;23;20053;-95
2022/07/03 05:23:59;;;;;;;11.65;5.90;;;16.20;99.90;;;;;;6072631;23;20014;-95
2022/07/03 05:26:25;;;;;;;13.18;7.07;;;16.40;99.90;;;;;;6074119;23;20021;-94
2022/07/03 05:28:51;;;;;;;10.07;7.00;;;16.50;99.90;;;;;;6073888;23;20469;-95
2022/07/03 05:31:17;;;;;;;11.13;7.03;;;16.60;99.90;;;;;;6070737;23;20057;-95
2022/07/03 05:33:42;;;;;;;8.98;5.78;;;16.80;99.90;;;;;;6073849;23;20025;-95
2022/07/03 05:36:08;;;;;;;8.05;5.10;;;17.00;99.90;;;;;;6071899;23;20025;-94
2022/07/03 05:41:19;;;;;;;7.93;5.20;;;17.20;99.90;;;;;;6096172;23;20018;-95
2022/07/03 05:43:44;;;;;;;10.10;5.20;;;17.40;99.90;;;;;;6073785;23;20374;-95
2022/07/03 05:46:10;;;;;;;10.48;4.40;;;17.60;99.90;;;;;;6071803;23;20457;-96
2022/07/03 05:48:36;;;;;;;9.55;4.25;;;17.80;99.90;;;;;;6071447;23;20024;-95
2022/07/03 05:51:02;;;;;;;6.30;4.00;;;18.00;99.90;;;;;;6074242;23;20026;-96
2022/07/03 05:53:28;;;;;;;9.55;4.15;;;18.40;99.90;;;;;;6072109;23;20025;-95
2022/07/03 05:55:54;;;;;;;5.47;3.42;;;18.60;99.90;;;;;;6073999;23;20075;-95
2022/07/03 05:58:20;;;;;;;3.03;1.67;;;18.80;99.90;;;;;;6072444;23;20438;-96
2022/07/03 06:00:46;;;;;;;3.88;1.20;;;18.90;99.90;;;;;;6072444;23;20436;-95
2022/07/03 06:03:12;;;;;;;5.25;1.05;;;18.90;99.90;;;;;;6072196;23;20056;-95
2022/07/03 06:05:38;;;;;;;3.65;0.95;;;19.00;99.90;;;;;;6072478;23;20014;-96
2022/07/03 06:08:05;;;;;;;6.47;1.10;;;19.00;99.90;;;;;;6077603;23;20048;-96
2022/07/03 06:10:31;;;;;;;4.28;1.00;;;19.00;99.90;;;;;;6071786;23;20026;-96
2022/07/03 06:12:57;;;;;;;6.28;1.10;;;19.00;99.90;;;;;;6072482;23;20014;-96
2022/07/03 06:15:23;;;;;;;3.53;0.90;;;19.00;99.90;;;;;;6072247;23;20096;-96
2022/07/03 06:17:49;;;;;;;4.18;0.82;;;19.10;99.90;;;;;;6071126;23;20052;-96
2022/07/03 06:20:15;;;;;;;3.55;0.80;;;19.30;99.90;;;;;;6071000;23;20640;-95
2022/07/03 06:22:41;;;;;;;13.68;1.20;;;19.50;99.90;;;;;;6071888;23;20067;-95
2022/07/03 06:25:07;;;;;;;10.23;1.27;;;19.60;99.90;;;;;;6074431;23;20029;-95
2022/07/03 06:27:33;;;;;;;8.10;1.23;;;19.80;99.90;;;;;;6072110;23;20025;-94
2022/07/03 06:29:59;;;;;;;5.10;1.15;;;20.00;99.90;;;;;;6074005;23;20074;-96
2022/07/03 06:32:28;;;;;;;4.97;1.25;;;20.20;99.90;;;;;;6072283;23;20022;-92
2022/07/03 06:34:54;;;;;;;3.92;1.08;;;20.40;99.90;;;;;;6071083;23;20117;-96
2022/07/03 06:37:21;;;;;;;2.67;1.05;;;20.50;99.90;;;;;;6071014;23;20458;-95
2022/07/03 06:39:47;;;;;;;6.97;0.93;;;20.70;99.90;;;;;;6072114;23;20438;-95
2022/07/03 06:42:13;;;;;;;1.45;0.68;;;20.70;99.90;;;;;;6074067;23;20097;-95
2022/07/03 06:44:40;;;;;;;4.72;1.00;;;20.80;99.90;;;;;;6075068;23;20044;-95
2022/07/03 06:47:06;;;;;;;3.83;0.88;;;20.70;99.90;;;;;;6073312;23;20156;-95
2022/07/03 06:49:33;;;;;;;3.67;0.80;;;20.70;99.90;;;;;;6074866;23;20105;-96
2022/07/03 06:51:59;;;;;;;3.30;0.70;;;20.60;99.90;;;;;;6072929;23;20028;-96
2022/07/03 06:54:25;;;;;;;3.47;0.80;;;20.60;99.90;;;;;;6073203;23;20050;-95
2022/07/03 06:56:51;;;;;;;2.58;0.70;;;20.70;99.90;;;;;;6073239;23;20523;-95
2022/07/03 06:59:16;;;;;;;3.17;0.77;;;20.80;99.90;;;;;;6073161;23;20108;-95
2022/07/03 07:01:42;;;;;;;3.65;0.80;;;20.80;99.90;;;;;;6073073;23;20061;-95
2022/07/03 07:04:08;;;;;;;7.50;0.88;;;20.70;99.90;;;;;;6072997;23;20025;-96
2022/07/03 07:06:34;;;;;;;3.78;0.80;;;20.60;99.90;;;;;;6072731;23;20105;-95
2022/07/03 07:09:00;;;;;;;3.42;0.98;;;20.60;99.90;;;;;;6073367;23;20020;-95
2022/07/03 07:11:26;;;;;;;4.18;0.80;;;20.40;99.90;;;;;;6072770;23;20049;-96
2022/07/03 07:13:52;;;;;;;4.40;1.05;;;20.30;99.90;;;;;;6076845;23;20426;-95
2022/07/03 07:16:18;;;;;;;13.98;0.95;;;20.20;99.90;;;;;;6071213;23;20091;-95
2022/07/03 07:18:44;;;;;;;6.75;1.00;;;20.20;99.90;;;;;;6071505;23;20014;-96
2022/07/03 07:21:10;;;;;;;7.03;1.00;;;20.20;99.90;;;;;;6075994;23;20025;-96
2022/07/03 07:23:36;;;;;;;2.67;0.85;;;20.30;99.90;;;;;;6077891;23;20465;-96
2022/07/03 07:28:33;;;;;;;5.15;1.05;;;20.70;99.90;;;;;;6111200;23;20033;-90
2022/07/03 07:30:59;;;;;;;3.58;0.70;;;21.00;99.90;;;;;;6092206;23;20029;-88
2022/07/03 07:33:24;;;;;;;5.85;0.90;;;21.10;99.90;;;;;;6067488;23;20506;-88
2022/07/03 07:35:50;;;;;;;8.93;2.00;;;21.00;99.90;;;;;;6069645;23;20061;-92
2022/07/03 07:38:54;;;;;;;11.50;1.48;;;20.80;99.90;;;;;;6069888;23;20020;-93
2022/07/03 07:41:22;;;;;;;6.90;0.80;;;20.50;99.90;;;;;;6070048;23;20036;-96
2022/07/03 07:44:06;;;;;;;3.75;1.10;;;20.40;99.90;;;;;;6073064;23;20021;-90
2022/07/03 07:46:33;;;;;;;6.50;0.98;;;20.40;99.90;;;;;;6091229;23;20140;-92
2022/07/03 07:48:58;;;;;;;4.20;1.10;;;20.50;99.90;;;;;;6069072;23;20022;-86
2022/07/03 07:51:24;;;;;;;6.05;0.90;;;20.70;99.90;;;;;;6066822;23;20029;-87
2022/07/03 07:53:52;;;;;;;3.30;1.10;;;20.80;99.90;;;;;;6093426;23;20014;-87
2022/07/03 07:56:18;;;;;;;6.18;1.02;;;20.80;99.90;;;;;;6067830;23;20078;-87
2022/07/03 07:58:43;;;;;;;3.58;0.90;;;21.00;99.90;;;;;;6093198;23;20074;-89
2022/07/03 08:06:37;;;;;;;3.60;0.90;;;21.20;99.90;;;;;;6090194;23;20061;-87
2022/07/03 08:09:03;;;;;;;4.97;0.95;;;21.30;99.90;;;;;;6067353;23;20037;-86
2022/07/03 08:11:29;;;;;;;6.28;0.70;;;21.40;99.90;;;;;;6090376;23;20021;-86
2022/07/03 08:13:54;;;;;;;4.50;0.73;;;21.40;99.90;;;;;;6067865;23;20018;-87
2022/07/03 08:16:20;;;;;;;3.83;1.08;;;21.50;99.90;;;;;;6067806;23;20022;-89
2022/07/03 08:18:46;;;;;;;2.35;1.00;;;21.70;99.90;;;;;;6067967;23;20065;-88
2022/07/03 08:21:12;;;;;;;5.38;1.38;;;21.80;99.90;;;;;;6068934;23;20018;-89
2022/07/03 08:23:38;;;;;;;5.25;0.98;;;21.70;99.90;;;;;;6067441;23;20473;-86
2022/07/03 08:26:04;;;;;;;3.40;1.05;;;21.60;99.90;;;;;;6066185;23;20029;-86
2022/07/03 08:28:30;;;;;;;3.60;0.80;;;21.60;99.90;;;;;;6066761;23;20024;-87
2022/07/03 08:30:55;;;;;;;4.50;1.00;;;21.70;99.90;;;;;;6067239;23;20032;-87
2022/07/03 08:33:21;;;;;;;6.35;0.70;;;21.80;99.90;;;;;;6068011;23;20104;-90
2022/07/03 08:35:47;;;;;;;5.35;1.10;;;21.90;99.90;;;;;;6069652;23;20062;-90
2022/07/03 08:38:13;;;;;;;3.58;1.20;;;21.90;99.90;;;;;;6069097;23;20022;-90
2022/07/03 08:40:40;;;;;;;4.10;0.80;;;22.00;99.90;;;;;;6068732;23;20450;-91
2022/07/03 08:43:06;;;;;;;3.95;0.60;;;22.10;99.90;;;;;;6067859;23;20466;-92
2022/07/03 08:45:34;;;;;;;3.70;0.90;;;22.20;99.90;;;;;;6069397;23;20105;-91
2022/07/03 08:48:01;;;;;;;4.47;0.90;;;22.20;99.90;;;;;;6066994;23;20010;-87
2022/07/03 08:50:28;;;;;;;3.53;0.80;;;22.30;99.90;;;;;;6091502;23;20390;-86
2022/07/03 08:52:54;;;;;;;4.05;0.77;;;22.40;99.90;;;;;;6089713;23;20022;-85
2022/07/03 08:55:19;;;;;;;4.22;0.80;;;22.40;99.90;;;;;;6066448;23;20071;-87
2022/07/03 08:57:47;;;;;;;2.88;0.47;;;22.60;99.90;;;;;;6070209;23;20022;-87
2022/07/03 09:00:15;;;;;;;7.63;0.80;;;22.60;99.90;;;;;;6065954;23;20033;-87
2022/07/03 09:02:44;;;;;;;1.88;0.57;;;22.70;99.90;;;;;;6066329;23;20446;-86
2022/07/03 09:05:13;;;;;;;5.53;0.85;;;22.70;99.90;;;;;;6066855;23;20045;-90
2022/07/03 09:07:41;;;;;;;2.17;0.50;;;22.60;99.90;;;;;;6067126;23;20072;-86
2022/07/03 09:10:09;;;;;;;2.10;0.70;;;22.50;99.90;;;;;;6067074;23;20454;-87
2022/07/03 09:12:36;;;;;;;2.42;0.32;;;22.50;99.90;;;;;;6065703;23;20025;-86
2022/07/03 09:15:04;;;;;;;5.78;0.47;;;22.60;99.90;;;;;;6085631;23;20050;-86
2022/07/03 09:17:31;;;;;;;3.30;0.40;;;22.60;99.90;;;;;;6066482;23;20022;-86
2022/07/03 09:20:00;;;;;;;4.25;0.63;;;22.70;99.90;;;;;;6065698;23;20018;-87
2022/07/03 09:22:28;;;;;;;4.88;0.77;;;22.70;99.90;;;;;;6066493;23;20022;-88
2022/07/03 09:25:07;;;;;;;2.80;0.50;;;22.80;99.90;;;;;;6067174;23;20018;-86
2022/07/03 09:27:34;;;;;;;2.90;0.40;;;22.80;99.90;;;;;;6089806;23;20022;-86
2022/07/03 09:30:03;;;;;;;5.32;0.38;;;22.80;99.90;;;;;;6065974;23;20350;-88
2022/07/03 09:32:38;;;;;;;3.22;0.32;;;22.80;99.90;;;;;;6066824;23;20014;-87
2022/07/03 09:35:26;;;;;;;3.67;0.38;;;22.70;99.90;;;;;;6065159;23;20014;-86
2022/07/03 09:37:58;;;;;;;2.17;0.43;;;22.70;99.90;;;;;;6066487;23;20028;-87
2022/07/03 09:40:26;;;;;;;2.25;0.40;;;22.80;99.90;;;;;;6089820;23;20040;-86
2022/07/03 09:43:05;;;;;;;3.15;0.50;;;22.90;99.90;;;;;;6066126;23;20048;-87
2022/07/03 09:45:49;;;;;;;1.77;0.40;;;23.10;99.90;;;;;;6089852;23;20041;-87
2022/07/03 09:48:23;;;;;;;1.60;0.30;;;23.30;99.90;;;;;;6089186;23;20022;-87
2022/07/03 09:50:48;;;;;;;2.25;0.30;;;23.50;99.90;;;;;;6066228;23;20434;-86
2022/07/03 09:53:14;;;;;;;1.05;0.20;;;23.50;99.90;;;;;;6065889;23;20101;-88
2022/07/03 09:55:40;;;;;;;3.42;0.50;;;23.30;99.90;;;;;;6065239;23;20118;-86
2022/07/03 09:58:06;;;;;;;2.40;0.70;;;23.10;99.90;;;;;;6065441;23;20018;-87
2022/07/03 10:00:34;;;;;;;5.85;0.45;;;23.10;99.90;;;;;;6065496;23;20021;-87
2022/07/03 10:03:04;;;;;;;1.20;0.30;;;23.30;99.90;;;;;;6065758;23;20387;-87
2022/07/03 10:05:33;;;;;;;1.67;0.28;;;23.60;99.90;;;;;;6065884;23;20044;-89
2022/07/03 10:08:26;;;;;;;2.63;0.45;;;23.70;99.90;;;;;;6069422;23;20025;-88
2022/07/03 10:11:04;;;;;;;2.03;0.35;;;23.90;99.90;;;;;;6068102;23;20018;-89
2022/07/03 10:13:33;;;;;;;2.45;0.30;;;24.10;99.90;;;;;;6068573;23;20078;-89
2022/07/03 10:16:17;;;;;;;3.33;0.50;;;24.30;99.90;;;;;;6068929;23;20343;-90
2022/07/03 10:18:48;;;;;;;2.95;0.63;;;24.50;99.90;;;;;;6067899;23;20022;-89
2022/07/03 10:21:15;;;;;;;1.75;0.40;;;24.60;99.90;;;;;;6068606;23;20016;-89
2022/07/03 10:23:47;;;;;;;3.08;0.35;;;24.80;99.90;;;;;;6068640;23;20021;-89
2022/07/03 10:26:35;;;;;;;3.00;0.52;;;25.00;99.90;;;;;;6068685;23;20533;-89
2022/07/03 10:29:02;;;;;;;4.88;0.45;;;25.20;99.90;;;;;;6068061;23;20018;-88
2022/07/03 10:31:28;;;;;;;3.70;0.55;;;25.30;99.90;;;;;;6068147;23;20021;-89
2022/07/03 10:34:16;;;;;;;2.88;0.40;;;25.40;99.90;;;;;;6068286;23;20052;-90
2022/07/03 10:37:10;;;;;;;3.17;0.43;;;25.30;99.80;;;;;;6069639;23;20310;-88
2022/07/03 10:46:22;;;;;;;4.60;0.55;;;24.20;99.90;;;;;;6092818;23;20025;-89
2022/07/03 10:49:11;;;;;;;2.05;0.45;;;24.20;99.90;;;;;;6068374;23;20029;-89
2022/07/03 10:51:46;;;;;;;3.08;0.70;;;24.20;99.90;;;;;;6068654;23;20026;-91
2022/07/03 10:54:12;;;;;;;2.50;0.50;;;24.20;99.90;;;;;;6068631;23;20022;-90
2022/07/03 10:57:17;;;;;;;1.70;0.40;;;24.30;99.90;;;;;;6069272;23;20022;-89
2022/07/03 10:59:44;;;;;;;1.45;0.30;;;24.30;99.90;;;;;;6069117;23;20018;-89
2022/07/03 11:02:52;;;;;;;0.82;0.20;;;24.40;99.90;;;;;;6067894;23;20029;-89
2022/07/03 11:05:21;;;;;;;4.47;0.38;;;24.60;92.30;;;;;;6085633;23;20045;-89
2022/07/03 11:07:50;;;;;;;2.38;0.40;;;24.60;98.20;;;;;;6069985;23;20163;-89
2022/07/03 11:10:20;;;;;;;2.35;0.43;;;24.70;99.90;;;;;;6067324;23;20103;-89
2022/07/03 11:12:57;;;;;;;3.72;0.43;;;24.60;99.90;;;;;;6069067;23;20296;-89
2022/07/03 11:15:26;;;;;;;1.50;0.45;;;24.50;99.90;;;;;;6068309;23;20427;-89
2022/07/03 11:18:24;;;;;;;4.38;0.70;;;24.40;99.90;;;;;;6068786;23;20018;-88
2022/07/03 11:20:52;;;;;;;5.22;0.55;;;24.20;99.90;;;;;;6068528;23;20033;-90
2022/07/03 11:24:01;;;;;;;2.97;0.60;;;24.00;99.90;;;;;;6068521;23;20105;-89
2022/07/03 11:26:34;;;;;;;2.92;0.50;;;24.30;99.90;;;;;;6080108;23;20022;-90
2022/07/03 11:29:30;;;;;;;2.85;0.40;;;24.70;99.90;;;;;;6069895;23;20214;-89
2022/07/03 11:31:56;;;;;;;5.78;0.68;;;24.80;99.90;;;;;;6069558;23;20064;-89
2022/07/03 11:34:22;;;;;;;4.65;0.60;;;24.70;99.90;;;;;;6068619;23;20717;-88
2022/07/03 11:36:51;;;;;;;1.35;0.30;;;24.80;99.90;;;;;;6069163;23;20335;-89
2022/07/03 11:39:29;;;;;;;3.17;0.50;;;24.90;99.90;;;;;;6069386;23;20052;-89
2022/07/03 11:42:18;;;;;;;4.65;0.55;;;24.80;99.90;;;;;;6069038;23;20057;-89
2022/07/03 11:44:57;;;;;;;;;;;;;;;;;;;;;
2022/07/03 11:47:23;;;;;;;3.78;0.55;;;24.70;99.90;;;;;;6093826;23;20608;-88
2022/07/03 11:49:49;;;;;;;4.18;0.63;;;24.50;99.90;;;;;;6093549;23;20038;-89
2022/07/03 11:53:01;;;;;;;3.17;0.60;;;24.50;99.90;;;;;;6069802;23;20018;-89
2022/07/03 11:55:39;;;;;;;3.88;1.10;;;24.60;99.90;;;;;;6087812;23;20022;-89
2022/07/03 11:58:12;;;;;;;6.20;0.93;;;24.90;99.90;;;;;;6067356;23;20022;-90
2022/07/03 12:00:43;;;;;;;3.50;0.82;;;25.00;99.90;;;;;;6070063;23;20021;-90
2022/07/03 12:03:21;;;;;;;3.88;0.80;;;24.90;99.90;;;;;;6068858;23;20022;-89
2022/07/03 12:05:53;;;;;;;7.05;1.00;;;24.70;99.90;;;;;;6069341;23;20018;-89
2022/07/03 12:08:24;;;;;;;7.57;1.67;;;24.60;99.90;;;;;;6069142;23;20515;-89
2022/07/03 12:10:58;;;;;;;9.48;1.58;;;24.40;99.90;;;;;;6069968;23;20045;-90
2022/07/03 12:13:36;;;;;;;8.48;1.35;;;24.20;99.90;;;;;;6068745;23;20105;-89
2022/07/03 12:16:14;;;;;;;5.80;1.38;;;24.10;99.90;;;;;;6069775;23;20097;-88
2022/07/03 12:18:59;;;;;;;8.02;1.40;;;24.00;99.90;;;;;;6068032;23;20473;-91
2022/07/03 12:21:47;;;;;;;6.50;0.90;;;23.90;99.90;;;;;;6070941;23;20032;-89
2022/07/03 12:24:25;;;;;;;3.55;0.70;;;23.80;99.90;;;;;;6068027;23;20041;-89
2022/07/03 12:26:56;;;;;;;6.05;0.82;;;23.80;99.90;;;;;;6069561;23;20021;-89
2022/07/03 12:29:56;;;;;;;4.22;0.80;;;23.80;99.90;;;;;;6096754;23;20058;-91
2022/07/03 12:32:45;;;;;;;5.82;1.10;;;24.00;99.90;;;;;;6069294;23;20093;-89
2022/07/03 12:35:10;;;;;;;5.55;0.95;;;24.20;99.90;;;;;;6044433;23;20036;-89
2022/07/03 12:37:40;;;;;;;3.90;0.85;;;24.50;99.90;;;;;;6072193;23;20486;-87
2022/07/03 12:40:09;;;;;;;4.88;0.90;;;24.40;99.90;;;;;;6070319;23;20018;-88
2022/07/03 12:42:45;;;;;;;5.10;1.00;;;24.40;99.90;;;;;;6069330;23;20950;-92
2022/07/03 12:45:24;;;;;;;5.43;0.85;;;24.60;99.90;;;;;;6070347;23;20022;-91
2022/07/03 12:48:04;;;;;;;7.88;1.20;;;24.80;99.90;;;;;;6070421;23;20026;-91
2022/07/03 12:50:47;;;;;;;5.97;1.00;;;24.90;99.90;;;;;;6069986;23;20414;-92
2022/07/03 12:53:28;;;;;;;;;;;24.60;99.90;;;;;;6070445;23;20022;-92
2022/07/03 12:56:11;;;;;;;6.50;0.80;;;24.50;99.90;;;;;;6071423;23;19924;-92
2022/07/03 13:02:04;;;;;;;6.50;1.17;;;24.20;99.90;;;;;;6119247;23;20034;-93
2022/07/03 13:04:38;;;;;;;4.05;0.60;;;24.00;99.90;;;;;;6070287;23;20034;-93
2022/07/03 13:07:05;;;;;;;5.25;0.63;;;24.10;99.90;;;;;;6069810;23;20022;-93
2022/07/03 13:09:33;;;;;;;4.43;0.70;;;24.10;99.90;;;;;;6070473;23;20026;-92
2022/07/03 13:12:08;;;;;;;5.72;1.08;;;24.00;99.90;;;;;;6070408;23;20018;-93
2022/07/03 13:14:34;;;;;;;5.20;0.75;;;24.00;99.90;;;;;;6069126;23;20113;-93
2022/07/03 13:17:06;;;;;;;3.72;0.80;;;24.00;99.90;;;;;;6065811;23;20025;-95
2022/07/03 13:19:32;;;;;;;5.80;1.02;;;23.80;99.90;;;;;;6149574;23;20084;-92
2022/07/03 13:25:32;;;;;;;5.53;0.90;;;23.50;99.90;;;;;;6112226;23;20035;-93
2022/07/03 13:28:05;;;;;;;5.68;0.90;;;23.30;99.90;;;;;;6070468;23;20125;-92
2022/07/03 13:30:30;;;;;;;4.82;0.85;;;23.30;99.90;;;;;;6069322;23;20026;-92